Aérodrome :
LOGIN :

S'inscrire | Disclaimer

   EN    FR    IT 

 










Légende :    VFR   VFR Marginal   IFR   IFR Intensif   IFR Très Intensif
Visi : 
Plafond : 
>= 8 km
>= 3000ft
5 à 8 km
1000 à 3000 ft
1500m à 5 km
500 à 1000 ft
800 à 1500m
200 à 500 ft
< 800m
< 200 ft
Symboles :   Orages  Brouillard  Fortes neiges  Fortes précipitations  Vent > 20 kt
SIGMETs :   Divers  Orages  Givrage  Turbulence  Onde Orograph.  Cendres Volcan.






- Altitude de l'aérodrome : 59 ft
- Code IATA : TSF


LIPH - Treviso

DERNIER METAR :
  • 160920Z VRB02KT 3000 BR FEW004 16/16 Q1015

METARs EXPIRÉS :
  • 160850Z 22003KT 190V260 0700 R07/1000VP1500D FG NSC 15/15 Q1015
  • 160820Z VRB02KT 0100 R07/0375N FG NSC 14/14 Q1015
  • 160750Z 26005KT 230V290 0100 R07/0375N FG NSC 14/14 Q1015
  • 160720Z 29003KT 250V330 0600 R07/1000VP1500D FG NSC 14/14 Q1014

TAF TAF LIPH
Valide du 15 à 18h jusqu'au 16 à 18h UTC


151700Z 1518/1618 VRB05KT 3000 BR SCT010 BKN020
TEMPO 1518/1602 TSRA
TEMPO 1602/1608 0600 FG
BECMG 1608/1610 8000



MET'MAP, la Météo Aéronautique d'un coup d'oeil ! - Copyright ORBIFLY Décembre 2007 - Disclaimer

ORBIFLY MET'MAP TEAM :

Programmation & Développement : Alexandra Zaïnal
Conception & Développement : Baudouin d'Aumeries
Co-Programmation & Développement : Marc-Olivier Méhu
Soutien technique & logistique : Manuel Goepfert

Contact : metmap@orbifly.com




SOURCES & CREDITS :

   NOAA